createdAt,value
2016-08-23T00:00:56.621Z,18.83
2016-08-23T00:01:57.239Z,18.86
2016-08-23T00:02:57.852Z,18.95
2016-08-23T00:03:58.461Z,18.83
2016-08-23T00:04:59.082Z,18.95
2016-08-23T00:05:59.707Z,19.04
2016-08-23T00:07:00.323Z,18.93
2016-08-23T00:08:00.933Z,18.86
2016-08-23T00:09:01.554Z,18.99
2016-08-23T00:10:02.176Z,19.26
2016-08-23T00:11:02.796Z,19.12
2016-08-23T00:12:03.417Z,18.92
2016-08-23T00:13:04.042Z,19
2016-08-23T00:14:04.661Z,18.99
2016-08-23T00:15:05.283Z,19.34
2016-08-23T00:16:05.905Z,19.21
2016-08-23T00:17:06.540Z,18.96
2016-08-23T00:18:07.155Z,18.78
2016-08-23T00:19:07.771Z,18.78
2016-08-23T00:20:08.387Z,18.92
2016-08-23T00:21:09.004Z,18.84
2016-08-23T00:22:09.641Z,18.68
2016-08-23T00:23:10.267Z,18.59
2016-08-23T00:24:10.886Z,18.75
2016-08-23T00:25:11.504Z,18.83
2016-08-23T00:26:12.127Z,18.73
2016-08-23T00:27:12.750Z,18.6
2016-08-23T00:28:13.371Z,18.89
2016-08-23T00:29:13.993Z,18.59
2016-08-23T00:30:14.610Z,18.63
2016-08-23T00:31:15.246Z,18.59
2016-08-23T00:32:15.853Z,18.41
2016-08-23T00:33:16.470Z,18.37
2016-08-23T00:34:17.098Z,18.43
2016-08-23T00:35:17.714Z,18.34
2016-08-23T00:36:18.329Z,18.56
2016-08-23T00:37:18.943Z,18.62
2016-08-23T00:38:19.556Z,18.84
2016-08-23T00:39:20.175Z,18.78
2016-08-23T00:40:20.810Z,18.9
2016-08-23T00:41:21.419Z,18.93
2016-08-23T00:42:22.042Z,18.89
2016-08-23T00:43:22.658Z,18.84
2016-08-23T00:44:23.286Z,18.88
2016-08-23T00:45:23.907Z,18.9
2016-08-23T00:46:24.531Z,18.9
2016-08-23T00:47:25.153Z,18.77
2016-08-23T00:48:25.775Z,18.81
2016-08-23T00:49:26.393Z,18.88
2016-08-23T00:50:27.015Z,18.92
2016-08-23T00:51:27.641Z,18.6
2016-08-23T00:52:28.261Z,18.53
2016-08-23T00:53:28.934Z,18.4
2016-08-23T00:54:29.554Z,18.8
2016-08-23T00:55:30.179Z,18.92
2016-08-23T00:56:30.798Z,18.9
2016-08-23T00:57:31.414Z,18.8
2016-08-23T00:58:32.032Z,18.88
2016-08-23T00:59:32.645Z,18.96
2016-08-23T01:00:33.265Z,19
2016-08-23T01:01:33.882Z,18.77
2016-08-23T01:02:34.500Z,18.73
2016-08-23T01:03:35.112Z,18.89
2016-08-23T01:04:35.720Z,18.7
2016-08-23T01:05:36.341Z,18.66
2016-08-23T01:06:36.973Z,18.83
2016-08-23T01:07:37.592Z,18.83
2016-08-23T01:08:38.212Z,18.75
2016-08-23T01:09:38.827Z,18.58
2016-08-23T01:10:39.456Z,18.73
2016-08-23T01:11:40.077Z,18.65
2016-08-23T01:12:40.696Z,18.7
2016-08-23T01:13:41.315Z,18.8
2016-08-23T01:14:41.936Z,18.8
2016-08-23T01:15:42.564Z,18.78
2016-08-23T01:16:43.185Z,18.71
2016-08-23T01:17:43.799Z,18.8
2016-08-23T01:18:44.422Z,18.86
2016-08-23T01:19:45.058Z,18.81
2016-08-23T01:20:45.677Z,19
2016-08-23T01:21:46.299Z,18.86
2016-08-23T01:22:46.923Z,18.88
2016-08-23T01:23:47.546Z,18.86
2016-08-23T01:24:48.202Z,18.58
2016-08-23T01:25:48.830Z,18.6
2016-08-23T01:26:49.451Z,18.74
2016-08-23T01:27:50.073Z,18.92
2016-08-23T01:28:50.691Z,18.99
2016-08-23T01:29:51.315Z,18.86
2016-08-23T01:30:51.936Z,18.7
2016-08-23T01:31:52.567Z,18.68
2016-08-23T01:32:53.185Z,18.68
2016-08-23T01:33:53.804Z,18.89
2016-08-23T01:34:54.426Z,18.8
2016-08-23T01:35:55.043Z,18.73
2016-08-23T01:36:55.661Z,18.58
2016-08-23T01:37:56.283Z,18.35
2016-08-23T01:38:56.904Z,18.31
2016-08-23T01:39:57.524Z,18.4
2016-08-23T01:40:58.145Z,18.37
2016-08-23T01:41:58.767Z,18.71
2016-08-23T01:42:59.402Z,18.68
2016-08-23T01:44:00.024Z,18.58
2016-08-23T01:45:00.645Z,18.6
2016-08-23T01:46:01.262Z,18.88
2016-08-23T01:47:01.934Z,18.86
2016-08-23T01:48:02.540Z,18.75
2016-08-23T01:49:03.163Z,18.65
2016-08-23T01:50:03.786Z,18.59
2016-08-23T01:51:04.403Z,18.35
2016-08-23T01:52:05.023Z,18.45
2016-08-23T01:53:05.648Z,18.52
2016-08-23T01:54:06.265Z,18.59
2016-08-23T01:55:06.882Z,18.56
2016-08-23T01:56:07.504Z,18.52
2016-08-23T01:57:08.128Z,18.47
2016-08-23T01:58:08.745Z,18.41
2016-08-23T01:59:09.368Z,18.53
2016-08-23T02:00:09.989Z,18.65
2016-08-23T02:01:10.617Z,18.8
2016-08-23T02:02:11.258Z,18.86
2016-08-23T02:03:11.892Z,18.62
2016-08-23T02:04:12.546Z,18.52
2016-08-23T02:05:13.159Z,18.38
2016-08-23T02:06:13.789Z,18.37
2016-08-23T02:07:14.410Z,18.68
2016-08-23T02:08:15.058Z,18.78
2016-08-23T02:09:15.685Z,18.6
2016-08-23T02:10:16.307Z,18.55
2016-08-23T02:11:16.926Z,18.63
2016-08-23T02:12:17.542Z,18.65
2016-08-23T02:13:18.166Z,18.53
2016-08-23T02:14:18.785Z,18.53
2016-08-23T02:15:19.414Z,18.33
2016-08-23T02:16:20.028Z,18.2
2016-08-23T02:17:20.647Z,18.13
2016-08-23T02:18:21.271Z,18.44
2016-08-23T02:19:21.888Z,18.55
2016-08-23T02:20:22.508Z,18.6
2016-08-23T02:21:23.139Z,18.6
2016-08-23T02:22:23.773Z,18.5
2016-08-23T02:23:24.387Z,18.65
2016-08-23T02:24:25.010Z,18.66
2016-08-23T02:25:25.627Z,18.62
2016-08-23T02:26:26.259Z,18.63
2016-08-23T02:27:26.873Z,18.66
2016-08-23T02:28:27.493Z,18.59
2016-08-23T02:29:28.110Z,18.5
2016-08-23T02:30:28.729Z,18.53
2016-08-23T02:31:29.349Z,18.52
2016-08-23T02:32:29.968Z,18.53
2016-08-23T02:33:30.589Z,18.65
2016-08-23T02:34:31.207Z,18.71
2016-08-23T02:35:31.826Z,18.7
2016-08-23T02:36:32.446Z,18.5
2016-08-23T02:37:33.072Z,18.68
2016-08-23T02:38:33.696Z,18.63
2016-08-23T02:39:34.309Z,18.5
2016-08-23T02:40:34.954Z,18.63
2016-08-23T02:41:35.558Z,18.5
2016-08-23T02:42:36.176Z,18.53
2016-08-23T02:43:36.801Z,18.65
2016-08-23T02:44:37.420Z,18.47
2016-08-23T02:45:38.034Z,18.65
2016-08-23T02:46:38.661Z,18.7
2016-08-23T02:47:39.281Z,18.63
2016-08-23T02:48:39.904Z,18.5
2016-08-23T02:49:40.521Z,18.35
2016-08-23T02:50:41.142Z,18.08
2016-08-23T02:51:41.784Z,18.26
2016-08-23T02:52:42.413Z,18.37
2016-08-23T02:53:43.034Z,18.41
2016-08-23T02:54:43.650Z,18.43
2016-08-23T02:55:44.274Z,18.49
2016-08-23T02:56:44.948Z,18.62
2016-08-23T02:57:46.969Z,18.4
2016-08-23T02:58:47.676Z,18.5
2016-08-23T02:59:48.556Z,18.65
2016-08-23T03:00:49.246Z,18.6
2016-08-23T03:01:49.894Z,18.53
2016-08-23T03:02:50.894Z,18.49
2016-08-23T03:03:51.880Z,18.53
2016-08-23T03:04:52.869Z,18.53
2016-08-23T03:05:54.218Z,18.62
2016-08-23T03:06:54.869Z,18.63
2016-08-23T03:07:55.556Z,18.49
2016-08-23T03:08:56.274Z,18.56
2016-08-23T03:09:56.920Z,18.63
2016-08-23T03:10:57.587Z,18.53
2016-08-23T03:11:58.220Z,18.52
2016-08-23T03:12:58.893Z,18.45
2016-08-23T03:13:59.521Z,18.4
2016-08-23T03:15:00.304Z,18.4
2016-08-23T03:16:00.918Z,18.53
2016-08-23T03:17:01.538Z,18.4
2016-08-23T03:18:02.167Z,18.58
2016-08-23T03:19:02.817Z,18.56
2016-08-23T03:20:03.458Z,18.47
2016-08-23T03:21:04.093Z,18.62
2016-08-23T03:22:04.712Z,18.5
2016-08-23T03:23:05.334Z,18.26
2016-08-23T03:24:05.959Z,18.49
2016-08-23T03:25:06.585Z,18.56
2016-08-23T03:26:07.203Z,18.71
2016-08-23T03:27:07.824Z,18.83
2016-08-23T03:28:08.449Z,18.78
2016-08-23T03:29:09.077Z,18.56
2016-08-23T03:30:09.704Z,18.53
2016-08-23T03:31:10.321Z,18.52
2016-08-23T03:32:10.948Z,18.47
2016-08-23T03:33:11.582Z,18.41
2016-08-23T03:34:12.204Z,18.53
2016-08-23T03:35:12.831Z,18.52
2016-08-23T03:36:13.443Z,18.37
2016-08-23T03:37:14.075Z,18.23
2016-08-23T03:38:14.686Z,18.23
2016-08-23T03:39:15.324Z,18.59
2016-08-23T03:40:15.943Z,18.5
2016-08-23T03:41:16.571Z,18.41
2016-08-23T03:42:17.198Z,18.45
2016-08-23T03:43:17.844Z,18.49
2016-08-23T03:44:18.465Z,18.49
2016-08-23T03:45:19.090Z,18.47
2016-08-23T03:46:19.718Z,18.49
2016-08-23T03:47:20.330Z,18.53
2016-08-23T03:48:20.952Z,18.49
2016-08-23T03:49:21.568Z,18.58
2016-08-23T03:50:22.187Z,18.5
2016-08-23T03:51:22.817Z,18.49
2016-08-23T03:52:23.438Z,18.4
2016-08-23T03:53:24.055Z,18.58
2016-08-23T03:54:24.677Z,18.5
2016-08-23T03:55:25.297Z,18.28
2016-08-23T03:56:25.918Z,18.34
2016-08-23T03:57:26.571Z,18.62
2016-08-23T03:58:27.195Z,18.63
2016-08-23T03:59:27.826Z,18.81
2016-08-23T04:00:28.447Z,18.92
2016-08-23T04:01:29.066Z,18.86
2016-08-23T04:02:29.683Z,18.77
2016-08-23T04:03:30.314Z,18.68
2016-08-23T04:04:30.935Z,18.74
2016-08-23T04:05:31.561Z,18.66
2016-08-23T04:06:32.182Z,18.71
2016-08-23T04:07:32.800Z,18.66
2016-08-23T04:08:33.419Z,18.78
2016-08-23T04:09:34.043Z,18.58
2016-08-23T04:10:34.661Z,18.53
2016-08-23T04:11:35.283Z,18.55
2016-08-23T04:12:35.905Z,18.62
2016-08-23T04:13:36.526Z,18.63
2016-08-23T04:14:37.146Z,18.66
2016-08-23T04:15:37.769Z,18.78
2016-08-23T04:16:38.390Z,18.63
2016-08-23T04:17:39.006Z,18.73
2016-08-23T04:18:39.634Z,18.71
2016-08-23T04:19:40.251Z,18.63
2016-08-23T04:20:40.870Z,18.38
2016-08-23T04:21:41.490Z,18.41
2016-08-23T04:22:42.112Z,18.63
2016-08-23T04:23:42.730Z,18.62
2016-08-23T04:24:43.352Z,18.81
2016-08-23T04:25:43.975Z,18.43
2016-08-23T04:26:44.596Z,18.56
2016-08-23T04:27:45.226Z,18.59
2016-08-23T04:28:45.851Z,18.66
2016-08-23T04:29:46.473Z,18.56
2016-08-23T04:30:47.101Z,18.49
2016-08-23T04:31:47.714Z,18.68
2016-08-23T04:32:48.333Z,18.6
2016-08-23T04:33:48.959Z,18.71
2016-08-23T04:34:49.581Z,18.65
2016-08-23T04:35:50.202Z,18.71
2016-08-23T04:36:50.841Z,18.88
2016-08-23T04:37:51.474Z,18.62
2016-08-23T04:38:52.117Z,18.68
2016-08-23T04:39:52.737Z,18.74
2016-08-23T04:40:53.371Z,18.78
2016-08-23T04:41:54.024Z,18.68
2016-08-23T04:42:54.655Z,18.66
2016-08-23T04:43:55.271Z,18.73
2016-08-23T04:44:55.886Z,18.77
2016-08-23T04:45:56.504Z,18.86
2016-08-23T04:46:57.128Z,18.68
2016-08-23T04:47:57.763Z,18.63
2016-08-23T04:48:58.392Z,18.6
2016-08-23T04:49:59.026Z,18.35
2016-08-23T04:50:59.640Z,18.38
2016-08-23T04:52:00.252Z,18.52
2016-08-23T04:53:00.871Z,18.66
2016-08-23T04:54:01.492Z,18.5
2016-08-23T04:55:02.120Z,18.56
2016-08-23T04:56:02.745Z,18.44
2016-08-23T04:57:03.373Z,18.45
2016-08-23T04:58:03.993Z,18.49
2016-08-23T04:59:04.611Z,18.58
2016-08-23T05:00:05.229Z,18.49
2016-08-23T05:01:05.847Z,18.53
2016-08-23T05:02:06.464Z,18.5
2016-08-23T05:03:07.081Z,18.84
2016-08-23T05:04:07.702Z,18.74
2016-08-23T05:05:08.332Z,18.55
2016-08-23T05:06:08.952Z,18.63
2016-08-23T05:07:09.574Z,18.65
2016-08-23T05:08:10.189Z,18.6
2016-08-23T05:09:10.807Z,18.74
2016-08-23T05:10:11.430Z,18.58
2016-08-23T05:11:12.051Z,18.68
2016-08-23T05:12:12.675Z,18.66
2016-08-23T05:13:13.297Z,18.73
2016-08-23T05:14:13.915Z,18.47
2016-08-23T05:15:14.537Z,18.52
2016-08-23T05:16:15.157Z,18.58
2016-08-23T05:17:15.792Z,18.59
2016-08-23T05:18:16.405Z,18.68
2016-08-23T05:19:17.048Z,18.7
2016-08-23T05:20:17.681Z,18.66
2016-08-23T05:21:18.301Z,18.6
2016-08-23T05:22:18.929Z,18.62
2016-08-23T05:23:19.569Z,18.68
2016-08-23T05:24:20.197Z,18.65
2016-08-23T05:25:20.820Z,18.65
2016-08-23T05:26:21.443Z,18.7
2016-08-23T05:27:22.065Z,18.78
2016-08-23T05:28:22.688Z,18.84
2016-08-23T05:29:23.315Z,18.83
2016-08-23T05:30:23.938Z,18.78
2016-08-23T05:31:24.571Z,18.78
2016-08-23T05:32:25.189Z,18.81
2016-08-23T05:33:25.808Z,18.77
2016-08-23T05:34:26.426Z,18.88
2016-08-23T05:35:27.045Z,18.78
2016-08-23T05:36:27.665Z,18.84
2016-08-23T05:37:28.295Z,18.95
2016-08-23T05:38:28.907Z,18.86
2016-08-23T05:39:29.531Z,18.78
2016-08-23T05:40:30.154Z,18.88
2016-08-23T05:41:30.775Z,18.86
2016-08-23T05:42:31.392Z,18.88
2016-08-23T05:43:32.008Z,18.95
2016-08-23T05:44:32.628Z,19.09
2016-08-23T05:45:33.249Z,18.89
2016-08-23T05:46:33.880Z,18.8
2016-08-23T05:47:34.515Z,18.96
2016-08-23T05:48:35.132Z,18.92
2016-08-23T05:49:35.766Z,18.9
2016-08-23T05:50:36.399Z,18.84
2016-08-23T05:51:37.040Z,18.89
2016-08-23T05:52:37.661Z,18.92
2016-08-23T05:53:38.280Z,18.96
2016-08-23T05:54:38.898Z,18.92
2016-08-23T05:55:39.520Z,18.93
2016-08-23T05:56:40.151Z,18.92
2016-08-23T05:57:40.765Z,18.98
2016-08-23T05:58:41.389Z,19.12
2016-08-23T05:59:42.005Z,19.07
2016-08-23T06:00:42.634Z,18.96
2016-08-23T06:01:43.255Z,18.9
2016-08-23T06:02:43.866Z,18.96
2016-08-23T06:03:44.500Z,19
2016-08-23T06:04:45.119Z,18.95
2016-08-23T06:05:45.742Z,18.98
2016-08-23T06:06:46.363Z,18.9
2016-08-23T06:07:46.982Z,18.9
2016-08-23T06:08:47.605Z,18.99
2016-08-23T06:09:48.223Z,18.95
2016-08-23T06:10:48.849Z,19.02
2016-08-23T06:11:49.481Z,19.08
2016-08-23T06:12:50.097Z,19.24
2016-08-23T06:13:50.731Z,19.14
2016-08-23T06:14:51.353Z,19.09
2016-08-23T06:15:51.976Z,19.21
2016-08-23T06:16:52.586Z,19.22
2016-08-23T06:17:53.215Z,19.15
2016-08-23T06:18:53.835Z,19
2016-08-23T06:19:54.457Z,19.09
2016-08-23T06:20:55.080Z,19.29
2016-08-23T06:21:55.704Z,19.22
2016-08-23T06:22:56.429Z,19.21
2016-08-23T06:23:57.051Z,19.14
2016-08-23T06:24:57.668Z,19.15
2016-08-23T06:25:58.288Z,19.16
2016-08-23T06:26:58.908Z,19.27
2016-08-23T06:27:59.573Z,19.36
2016-08-23T06:29:00.162Z,19.3
2016-08-23T06:30:00.800Z,19.36
2016-08-23T06:31:01.428Z,19.27
2016-08-23T06:32:02.045Z,19.34
2016-08-23T06:33:02.671Z,19.41
2016-08-23T06:34:03.298Z,19.47
2016-08-23T06:35:03.931Z,19.47
2016-08-23T06:36:04.558Z,19.36
2016-08-23T06:37:05.175Z,19.36
2016-08-23T06:38:05.912Z,19.31
2016-08-23T06:39:06.534Z,19.54
2016-08-23T06:40:07.164Z,19.45
2016-08-23T06:41:07.786Z,19.54
2016-08-23T06:42:08.404Z,19.48
2016-08-23T06:43:09.034Z,19.48
2016-08-23T06:44:09.680Z,19.39
2016-08-23T06:45:10.302Z,19.26
2016-08-23T06:46:10.930Z,19.34
2016-08-23T06:47:11.558Z,19.52
2016-08-23T06:48:12.177Z,19.49
2016-08-23T06:49:12.803Z,19.47
2016-08-23T06:50:13.450Z,19.34
2016-08-23T06:51:14.083Z,19.48
2016-08-23T06:52:14.725Z,19.55
2016-08-23T06:53:15.365Z,19.69
2016-08-23T06:54:15.962Z,19.71
2016-08-23T06:55:16.589Z,19.69
2016-08-23T06:56:17.210Z,19.71
2016-08-23T06:57:17.831Z,19.71
2016-08-23T06:58:18.467Z,19.82
2016-08-23T06:59:19.090Z,19.82
2016-08-23T07:00:19.714Z,19.82
2016-08-23T07:01:20.348Z,19.85
2016-08-23T07:02:20.981Z,19.77
2016-08-23T07:03:21.621Z,19.88
2016-08-23T07:04:22.242Z,19.92
2016-08-23T07:05:22.867Z,19.85
2016-08-23T07:06:23.484Z,19.86
2016-08-23T07:07:24.104Z,19.77
2016-08-23T07:08:24.744Z,19.94
2016-08-23T07:09:25.380Z,20.07
2016-08-23T07:10:26.019Z,20.09
2016-08-23T07:11:26.644Z,20.21
2016-08-23T07:12:27.264Z,20.34
2016-08-23T07:13:27.883Z,20.29
2016-08-23T07:14:28.505Z,20.39
2016-08-23T07:15:29.129Z,20.44
2016-08-23T07:16:29.750Z,20.51
2016-08-23T07:17:30.371Z,20.66
2016-08-23T07:18:30.993Z,20.5
2016-08-23T07:19:31.618Z,20.66
2016-08-23T07:20:32.242Z,20.66
2016-08-23T07:21:32.858Z,20.75
2016-08-23T07:22:33.479Z,20.81
2016-08-23T07:23:34.133Z,20.8
2016-08-23T07:24:34.767Z,20.78
2016-08-23T07:25:35.385Z,20.75
2016-08-23T07:26:36.004Z,20.62
2016-08-23T07:27:36.639Z,20.69
2016-08-23T07:28:37.262Z,20.62
2016-08-23T07:29:37.886Z,20.78
2016-08-23T07:30:38.504Z,20.67
2016-08-23T07:31:39.128Z,20.75
2016-08-23T07:32:39.747Z,20.69
2016-08-23T07:33:40.369Z,20.65
2016-08-23T07:34:40.991Z,20.63
2016-08-23T07:35:41.614Z,20.78
2016-08-23T07:36:42.241Z,20.81
2016-08-23T07:37:42.861Z,20.8
2016-08-23T07:38:43.481Z,20.84
2016-08-23T07:39:44.117Z,20.9
2016-08-23T07:40:44.736Z,20.96
2016-08-23T07:41:45.364Z,20.92
2016-08-23T07:42:45.992Z,20.7
2016-08-23T07:43:46.653Z,20.67
2016-08-23T07:44:47.269Z,20.69
2016-08-23T07:45:47.887Z,20.66
2016-08-23T07:46:48.522Z,20.78
2016-08-23T07:47:49.144Z,20.8
2016-08-23T07:48:49.761Z,20.75
2016-08-23T07:49:50.387Z,20.59
2016-08-23T07:50:51.008Z,20.58
2016-08-23T07:51:51.634Z,20.63
2016-08-23T07:52:52.255Z,20.65
2016-08-23T07:53:52.874Z,20.55
2016-08-23T07:54:53.496Z,20.69
2016-08-23T07:55:54.128Z,20.63
2016-08-23T07:56:54.756Z,20.59
2016-08-23T07:57:55.385Z,20.62
2016-08-23T07:58:56.011Z,20.84
2016-08-23T07:59:56.631Z,20.81
2016-08-23T08:00:57.257Z,20.8
2016-08-23T08:01:57.926Z,20.78
2016-08-23T08:02:58.551Z,20.69
2016-08-23T08:03:59.184Z,20.67
2016-08-23T08:04:59.805Z,20.75
2016-08-23T08:06:00.471Z,20.8
2016-08-23T08:07:01.320Z,20.88
2016-08-23T08:08:02.503Z,20.93
2016-08-23T08:09:03.157Z,20.92
2016-08-23T08:10:03.777Z,21.07
2016-08-23T08:11:04.412Z,20.95
2016-08-23T08:12:05.033Z,21.11
2016-08-23T08:13:05.650Z,20.85
2016-08-23T08:14:06.275Z,20.95
2016-08-23T08:15:06.908Z,21.02
2016-08-23T08:16:07.576Z,20.97
2016-08-23T08:17:08.204Z,20.96
2016-08-23T08:18:08.823Z,20.96
2016-08-23T08:19:09.722Z,21
2016-08-23T08:20:10.075Z,21.14
2016-08-23T08:21:10.695Z,21.02
2016-08-23T08:22:11.320Z,21.03
2016-08-23T08:23:11.971Z,20.96
2016-08-23T08:24:12.591Z,21.02
2016-08-23T08:25:13.212Z,21.02
2016-08-23T08:26:13.845Z,20.99
2016-08-23T08:27:14.480Z,21
2016-08-23T08:28:15.108Z,20.96
2016-08-23T08:29:15.740Z,21.09
2016-08-23T08:30:16.370Z,21.07
2016-08-23T08:31:16.992Z,21.07
2016-08-23T08:32:17.616Z,21.17
2016-08-23T08:33:18.233Z,21.09
2016-08-23T08:34:18.854Z,21.09
2016-08-23T08:35:19.477Z,21.07
2016-08-23T08:36:20.104Z,21.14
2016-08-23T08:37:20.800Z,21.09
2016-08-23T08:38:21.432Z,21.18
2016-08-23T08:39:22.072Z,21.15
2016-08-23T08:40:22.685Z,21.17
2016-08-23T08:41:23.308Z,21.18
2016-08-23T08:42:23.937Z,21.22
2016-08-23T08:43:24.565Z,21.12
2016-08-23T08:44:25.182Z,21.2
2016-08-23T08:45:25.804Z,21.12
2016-08-23T08:46:26.441Z,21.12
2016-08-23T08:47:27.084Z,21.24
2016-08-23T08:48:27.703Z,21.25
2016-08-23T08:49:28.330Z,21.29
2016-08-23T08:50:28.946Z,21.21
2016-08-23T08:51:29.572Z,21.21
2016-08-23T08:52:30.192Z,21.27
2016-08-23T08:53:30.813Z,21.21
2016-08-23T08:54:31.431Z,21.35
2016-08-23T08:55:32.058Z,21.43
2016-08-23T08:56:32.678Z,21.54
2016-08-23T08:57:33.304Z,21.37
2016-08-23T08:58:33.925Z,21.27
2016-08-23T08:59:34.550Z,21.22
2016-08-23T09:00:35.170Z,21.36
2016-08-23T09:01:35.790Z,21.46
2016-08-23T09:02:36.408Z,21.55
2016-08-23T09:03:37.032Z,21.57
2016-08-23T09:04:37.650Z,21.62
2016-08-23T09:05:38.274Z,21.69
2016-08-23T09:06:38.890Z,21.72
2016-08-23T09:07:39.520Z,21.67
2016-08-23T09:08:40.134Z,21.55
2016-08-23T09:09:40.760Z,21.39
2016-08-23T09:10:41.385Z,21.4
2016-08-23T09:11:42.027Z,21.5
2016-08-23T09:12:42.650Z,21.33
2016-08-23T09:13:43.269Z,21.37
2016-08-23T09:14:43.892Z,21.42
2016-08-23T09:15:44.509Z,21.55
2016-08-23T09:16:45.138Z,21.69
2016-08-23T09:17:45.758Z,21.79
2016-08-23T09:18:46.375Z,21.93
2016-08-23T09:19:47.000Z,21.98
2016-08-23T09:20:47.621Z,21.83
2016-08-23T09:21:48.249Z,21.98
2016-08-23T09:22:48.862Z,21.99
2016-08-23T09:23:49.506Z,21.92
2016-08-23T09:24:50.125Z,21.93
2016-08-23T09:25:50.747Z,21.98
2016-08-23T09:26:51.367Z,22.13
2016-08-23T09:27:51.996Z,22.13
2016-08-23T09:28:52.638Z,22.1
2016-08-23T09:29:53.263Z,22.1
2016-08-23T09:30:53.887Z,22.13
2016-08-23T09:31:54.511Z,22.13
2016-08-23T09:32:55.138Z,22.22
2016-08-23T09:33:55.782Z,22.11
2016-08-23T09:34:56.410Z,22.22
2016-08-23T09:35:57.031Z,22.26
2016-08-23T09:36:57.654Z,22.1
2016-08-23T09:37:58.321Z,22.06
2016-08-23T09:38:58.961Z,22.04
2016-08-23T09:39:59.593Z,22.02
2016-08-23T09:41:00.208Z,21.89
2016-08-23T09:42:00.838Z,21.93
2016-08-23T09:43:01.481Z,21.67
2016-08-23T09:44:02.112Z,21.62
2016-08-23T09:45:02.743Z,21.55
2016-08-23T09:46:03.380Z,21.75
2016-08-23T09:47:04.021Z,21.72
2016-08-23T09:48:04.653Z,21.77
2016-08-23T09:49:05.281Z,21.79
2016-08-23T09:50:05.897Z,21.83
2016-08-23T09:51:06.520Z,21.72
2016-08-23T09:52:07.132Z,21.67
2016-08-23T09:53:07.754Z,21.51
2016-08-23T09:54:08.377Z,21.55
2016-08-23T09:55:09.003Z,21.52
2016-08-23T09:56:09.623Z,21.57
2016-08-23T09:57:10.248Z,21.61
2016-08-23T09:58:10.876Z,21.6
2016-08-23T09:59:11.507Z,21.67
2016-08-23T10:00:12.132Z,21.69
2016-08-23T10:01:12.766Z,21.76
2016-08-23T10:02:13.385Z,21.73
2016-08-23T10:03:14.022Z,21.69
2016-08-23T10:04:14.649Z,21.73
2016-08-23T10:05:15.269Z,21.64
2016-08-23T10:06:15.897Z,21.7
2016-08-23T10:07:16.523Z,21.8
2016-08-23T10:08:17.147Z,21.88
2016-08-23T10:09:17.787Z,21.88
2016-08-23T10:10:18.412Z,21.99
2016-08-23T10:11:19.038Z,21.91
2016-08-23T10:12:19.661Z,21.96
2016-08-23T10:13:20.280Z,21.99
2016-08-23T10:14:20.929Z,21.98
2016-08-23T10:15:21.558Z,22.06
2016-08-23T10:16:22.179Z,22.17
2016-08-23T10:17:22.804Z,22.2
2016-08-23T10:18:23.441Z,22.17
2016-08-23T10:19:24.072Z,22.22
2016-08-23T10:20:24.685Z,22.23
2016-08-23T10:21:25.312Z,22.25
2016-08-23T10:22:25.930Z,21.93
2016-08-23T10:23:26.565Z,21.92
2016-08-23T10:24:27.213Z,21.95
2016-08-23T10:25:27.840Z,21.99
2016-08-23T10:26:28.461Z,22.13
2016-08-23T10:27:29.080Z,22.22
2016-08-23T10:28:29.704Z,22.32
2016-08-23T10:29:30.332Z,22.45
2016-08-23T10:30:30.957Z,22.41
2016-08-23T10:31:31.577Z,22.45
2016-08-23T10:32:32.289Z,22.28
2016-08-23T10:33:32.908Z,22.14
2016-08-23T10:34:33.530Z,22.2
2016-08-23T10:35:34.160Z,22.29
2016-08-23T10:36:34.783Z,22.22
2016-08-23T10:37:35.402Z,22.1
2016-08-23T10:38:36.045Z,22.2
2016-08-23T10:39:36.742Z,22.2
2016-08-23T10:40:37.365Z,22.32
2016-08-23T10:41:37.987Z,22.47
2016-08-23T10:42:38.649Z,22.45
2016-08-23T10:43:39.289Z,22.47
2016-08-23T10:44:39.907Z,22.5
2016-08-23T10:45:40.530Z,22.43
2016-08-23T10:46:41.199Z,22.43
2016-08-23T10:47:41.826Z,22.5
2016-08-23T10:48:42.445Z,22.57
2016-08-23T10:49:43.067Z,22.53
2016-08-23T10:50:43.743Z,22.45
2016-08-23T10:51:44.400Z,22.47
2016-08-23T10:52:45.091Z,22.39
2016-08-23T10:53:45.811Z,22.51
2016-08-23T10:54:46.447Z,22.66
2016-08-23T10:55:47.089Z,22.62
2016-08-23T10:56:47.714Z,22.59
2016-08-23T10:57:48.341Z,22.73
2016-08-23T10:58:48.967Z,22.66
2016-08-23T10:59:49.585Z,22.54
2016-08-23T11:00:50.210Z,22.59
2016-08-23T11:01:50.832Z,22.53
2016-08-23T11:02:51.477Z,22.62
2016-08-23T11:03:52.109Z,22.69
2016-08-23T11:04:52.729Z,22.66
2016-08-23T11:05:53.356Z,22.54
2016-08-23T11:06:53.979Z,22.32
2016-08-23T11:07:54.611Z,22.32
2016-08-23T11:08:55.262Z,22.3
2016-08-23T11:09:55.885Z,22.43
2016-08-23T11:10:56.509Z,22.45
2016-08-23T11:11:57.139Z,22.17
2016-08-23T11:12:57.813Z,22.25
2016-08-23T11:13:58.437Z,22.18
2016-08-23T11:14:59.094Z,22.3
2016-08-23T11:15:59.727Z,22.35
2016-08-23T11:17:00.357Z,22.26
2016-08-23T11:18:00.988Z,22.29
2016-08-23T11:19:01.712Z,22.29
2016-08-23T11:20:02.559Z,22.28
2016-08-23T11:21:03.390Z,22.43
2016-08-23T11:22:04.017Z,22.51
2016-08-23T11:23:04.678Z,22.65
2016-08-23T11:24:05.465Z,22.59
2016-08-23T11:25:06.114Z,22.59
2016-08-23T11:26:06.750Z,22.65
2016-08-23T11:27:07.375Z,22.62
2016-08-23T11:28:08.052Z,22.7
2016-08-23T11:29:08.681Z,22.72
2016-08-23T11:30:09.323Z,22.69
2016-08-23T11:31:09.986Z,22.69
2016-08-23T11:32:10.626Z,22.72
2016-08-23T11:33:11.264Z,22.83
2016-08-23T11:34:11.901Z,22.78
2016-08-23T11:35:12.522Z,22.8
2016-08-23T11:36:13.197Z,22.76
2016-08-23T11:37:13.834Z,22.87
2016-08-23T11:38:15.334Z,22.83
2016-08-23T11:39:15.999Z,22.78
2016-08-23T11:40:16.625Z,22.84
2016-08-23T11:41:17.251Z,22.88
2016-08-23T11:42:17.888Z,22.78
2016-08-23T11:43:18.506Z,22.63
2016-08-23T11:44:19.135Z,22.59
2016-08-23T11:45:19.971Z,22.54
2016-08-23T11:46:20.597Z,22.57
2016-08-23T11:47:21.217Z,22.69
2016-08-23T11:48:21.839Z,22.68
2016-08-23T11:49:22.458Z,22.65
2016-08-23T11:50:23.079Z,23.95
2016-08-23T11:51:23.704Z,25.23
2016-08-23T11:52:24.326Z,25.43
2016-08-23T11:53:24.947Z,24.38
2016-08-23T11:54:25.575Z,23.77
2016-08-23T11:55:26.215Z,23.39
2016-08-23T11:56:26.841Z,23.21
2016-08-23T11:57:27.473Z,23.03
2016-08-23T11:58:28.111Z,23.05
2016-08-23T11:59:28.726Z,23.1
2016-08-23T12:00:30.753Z,23.17
2016-08-23T12:01:31.816Z,23.25
2016-08-23T12:02:32.599Z,23
2016-08-23T12:03:33.251Z,23.06
2016-08-23T12:04:34.021Z,23.09
2016-08-23T12:05:34.645Z,23.12
2016-08-23T12:06:35.274Z,23.25
2016-08-23T12:07:35.951Z,23.17
2016-08-23T12:08:36.630Z,23.2
2016-08-23T12:09:37.260Z,23.02
2016-08-23T12:10:37.907Z,22.99
2016-08-23T12:11:38.537Z,22.98
2016-08-23T12:12:39.156Z,23.02
2016-08-23T12:13:39.779Z,22.99
2016-08-23T12:14:40.405Z,23.06
2016-08-23T12:15:41.026Z,23.12
2016-08-23T12:16:41.648Z,23.06
2016-08-23T12:17:42.271Z,23.06
2016-08-23T12:18:42.902Z,23.03
2016-08-23T12:19:43.535Z,22.99
2016-08-23T12:20:44.169Z,22.98
2016-08-23T12:21:44.800Z,23.05
2016-08-23T12:22:46.132Z,23.03
2016-08-23T12:23:46.559Z,23.06
2016-08-23T12:24:47.206Z,23.02
2016-08-23T12:25:47.842Z,23.03
2016-08-23T12:26:48.469Z,22.96
2016-08-23T12:27:49.265Z,22.98
2016-08-23T12:28:49.943Z,22.93
2016-08-23T12:29:50.630Z,22.78
2016-08-23T12:30:51.268Z,22.76
2016-08-23T12:31:51.903Z,22.88
2016-08-23T12:32:52.520Z,22.96
2016-08-23T12:33:53.142Z,22.91
2016-08-23T12:34:53.766Z,22.94
2016-08-23T12:35:54.410Z,22.88
2016-08-23T12:36:55.056Z,22.94
2016-08-23T12:37:55.678Z,22.99
2016-08-23T12:38:56.301Z,22.98
2016-08-23T12:39:56.921Z,22.78
2016-08-23T12:40:57.543Z,22.84
2016-08-23T12:41:58.162Z,22.69
2016-08-23T12:42:58.785Z,22.73
2016-08-23T12:43:59.429Z,22.73
2016-08-23T12:45:00.051Z,22.75
2016-08-23T12:46:01.292Z,22.73
2016-08-23T12:47:02.665Z,22.8
2016-08-23T12:48:03.997Z,22.9
2016-08-23T12:49:04.715Z,22.76
2016-08-23T12:50:06.691Z,22.88
2016-08-23T12:51:08.063Z,23
2016-08-23T12:52:09.194Z,23.1
2016-08-23T12:53:10.046Z,23.1
2016-08-23T12:54:12.069Z,23.03
2016-08-23T12:55:13.025Z,23.02
2016-08-23T12:56:13.784Z,22.98
2016-08-23T12:57:15.130Z,23.03
2016-08-23T12:58:16.425Z,23.06
2016-08-23T12:59:17.679Z,23.15
2016-08-23T13:00:19.020Z,23.23
2016-08-23T13:01:19.829Z,23.21
2016-08-23T13:02:22.266Z,23.17
2016-08-23T13:03:23.601Z,23.23
2016-08-23T13:04:25.064Z,23.28
2016-08-23T13:05:26.737Z,23.13